Time;durP1;ratioP1;P1;durP2;ratioP2;P2;SDS_P1;SDS_P2;PMS_P1;PMS_P2;Temp;Humidity;BMP_temperature;BMP_pressure;BME280_temperature;BME280_humidity;BME280_pressure;Samples;Min_cycle;Max_cycle;Signal;HPM_P1;HPM_P2
2022/03/01 00:03:27;;;;;;;28.70;15.13;;;;;;;3.12;75.95;101873.69;8355701;28;20045;-65
2022/03/01 00:07:27;;;;;;;33.63;15.68;;;;;;;3.17;75.51;101863.66;8358111;28;20045;-65
2022/03/01 00:11:28;;;;;;;29.23;14.55;;;;;;;3.25;74.79;101869.59;8339399;28;20040;-65
2022/03/01 00:15:28;;;;;;;32.17;14.82;;;;;;;3.31;74.36;101853.31;8358478;28;20094;-65
2022/03/01 00:19:29;;;;;;;27.23;14.15;;;;;;;3.37;73.97;101858.41;8390174;28;20044;-65
2022/03/01 00:23:29;;;;;;;27.00;14.50;;;;;;;3.41;73.84;101857.34;8357712;28;20047;-65
2022/03/01 00:27:30;;;;;;;30.13;15.63;;;;;;;3.31;75.52;101864.00;8355951;28;20048;-65
2022/03/01 00:31:30;;;;;;;33.25;15.23;;;;;;;2.88;79.44;101869.28;8356853;28;20041;-65
2022/03/01 00:35:31;;;;;;;30.58;16.98;;;;;;;2.71;80.15;101879.72;8357636;28;20080;-65
2022/03/01 00:39:32;;;;;;;30.45;15.57;;;;;;;2.64;79.77;101874.69;8351808;28;20064;-65
2022/03/01 00:43:33;;;;;;;31.35;16.63;;;;;;;2.38;81.30;101882.78;8327581;28;20045;-65
2022/03/01 00:47:33;;;;;;;32.63;16.33;;;;;;;1.93;82.69;101874.63;8351098;28;20532;-65
2022/03/01 00:51:34;;;;;;;40.35;18.42;;;;;;;2.02;82.76;101864.50;8357794;28;20056;-65
2022/03/01 00:55:34;;;;;;;36.15;18.17;;;;;;;2.43;81.23;101871.00;8339287;28;20044;-65
2022/03/01 00:59:35;;;;;;;35.47;17.83;;;;;;;2.21;81.52;101867.38;8330766;28;20532;-65
2022/03/01 01:03:35;;;;;;;34.30;17.30;;;;;;;2.05;82.89;101874.19;8331063;28;20045;-65
2022/03/01 01:07:36;;;;;;;38.47;17.63;;;;;;;2.31;81.82;101866.13;8333171;28;20041;-65
2022/03/01 01:11:36;;;;;;;33.38;16.08;;;;;;;2.03;82.31;101870.72;8337059;28;20555;-65
2022/03/01 01:15:37;;;;;;;36.40;17.13;;;;;;;1.86;83.01;101878.44;8345858;28;20060;-65
2022/03/01 01:19:37;;;;;;;34.45;16.95;;;;;;;1.82;83.25;101876.78;8328738;28;20041;-65
2022/03/01 01:23:41;;;;;;;36.10;17.25;;;;;;;1.65;84.28;101879.16;8327965;28;20053;-65
2022/03/01 01:27:44;;;;;;;32.00;16.60;;;;;;;1.83;83.71;101883.88;8341431;28;20497;-65
2022/03/01 01:31:44;;;;;;;34.67;17.20;;;;;;;1.87;83.23;101882.84;8341553;28;20045;-65
2022/03/01 01:35:45;;;;;;;34.33;16.75;;;;;;;1.91;83.50;101881.81;8342363;28;20061;-65
2022/03/01 01:39:45;;;;;;;33.00;17.45;;;;;;;1.51;85.23;101878.72;8344686;28;20033;-65
2022/03/01 01:43:46;;;;;;;37.17;16.65;;;;;;;1.78;84.77;101880.47;8339117;28;20090;-65
2022/03/01 01:47:47;;;;;;;36.60;17.52;;;;;;;1.67;84.03;101882.63;8365656;28;20405;-65
2022/03/01 01:51:48;;;;;;;32.20;16.13;;;;;;;1.29;85.90;101886.56;8344469;28;20152;-65
2022/03/01 01:55:48;;;;;;;35.70;17.50;;;;;;;1.61;87.56;101880.16;8336919;28;20064;-65
2022/03/01 01:59:50;;;;;;;34.45;17.38;;;;;;;1.21;88.02;101887.72;8355643;28;20103;-65
2022/03/01 02:03:50;;;;;;;36.42;18.50;;;;;;;1.22;87.93;101889.47;8344181;28;20058;-65
2022/03/01 02:07:51;;;;;;;36.65;18.02;;;;;;;1.24;87.08;101876.97;8343148;28;20036;-65
2022/03/01 02:11:51;;;;;;;37.05;16.50;;;;;;;1.36;85.50;101869.47;8340310;28;20049;-65
2022/03/01 02:15:52;;;;;;;38.28;18.38;;;;;;;1.63;84.98;101855.22;8338623;28;20091;-65
2022/03/01 02:19:53;;;;;;;33.55;16.15;;;;;;;1.98;83.71;101853.97;8338029;28;20064;-65
2022/03/01 02:23:53;;;;;;;32.97;16.13;;;;;;;2.53;80.47;101844.88;8348852;28;20037;-65
2022/03/01 02:27:54;;;;;;;30.20;15.75;;;;;;;2.83;77.95;101844.56;8365349;28;20033;-65
2022/03/01 02:31:57;;;;;;;25.13;13.35;;;;;;;2.97;76.85;101839.56;8365295;28;20108;-65
2022/03/01 02:35:58;;;;;;;31.67;15.25;;;;;;;2.94;76.85;101841.47;8341499;28;20086;-65
2022/03/01 02:39:59;;;;;;;28.48;13.90;;;;;;;2.95;76.80;101838.75;8350480;28;20497;-65
2022/03/01 02:44:02;;;;;;;35.90;15.50;;;;;;;2.73;77.60;101845.84;8362322;28;20048;-65
2022/03/01 02:48:02;;;;;;;30.42;14.80;;;;;;;2.55;78.50;101843.88;8363627;28;20035;-65
2022/03/01 02:52:03;;;;;;;29.58;14.35;;;;;;;2.40;80.23;101836.44;8364906;28;20045;-65
2022/03/01 02:56:04;;;;;;;32.78;15.13;;;;;;;2.44;80.66;101843.38;8364502;28;20493;-65
2022/03/01 03:00:06;;;;;;;32.63;15.05;;;;;;;2.47;80.67;101832.59;8331336;28;20115;-65
2022/03/01 03:04:07;;;;;;;26.63;14.20;;;;;;;2.52;80.89;101833.31;8330166;28;20549;-65
2022/03/01 03:08:07;;;;;;;30.98;15.55;;;;;;;2.57;80.73;101836.69;8370160;28;20409;-65
2022/03/01 03:12:08;;;;;;;30.88;14.80;;;;;;;2.55;81.14;101833.19;8362027;28;20056;-65
2022/03/01 03:16:10;;;;;;;33.17;15.50;;;;;;;2.49;81.97;101822.75;8337905;28;20494;-65
2022/03/01 03:20:11;;;;;;;35.08;16.20;;;;;;;2.37;82.55;101812.53;8329184;28;20061;-65
2022/03/01 03:24:11;;;;;;;35.95;16.27;;;;;;;2.25;83.24;101818.31;8330025;28;20036;-65
2022/03/01 03:28:13;;;;;;;32.20;15.88;;;;;;;2.17;84.39;101817.75;8348618;28;20167;-65
2022/03/01 03:32:13;;;;;;;31.77;15.85;;;;;;;2.22;83.89;101829.09;8361611;28;20041;-65
2022/03/01 03:36:14;;;;;;;31.15;15.07;;;;;;;2.28;83.73;101818.22;8358272;28;20045;-65
2022/03/01 03:40:15;;;;;;;36.83;17.20;;;;;;;2.29;83.96;101829.75;8362877;28;20094;-65
2022/03/01 03:44:15;;;;;;;36.47;15.85;;;;;;;2.12;84.15;101809.03;8362192;28;20045;-65
2022/03/01 03:48:15;;;;;;;35.55;15.82;;;;;;;2.21;84.01;101811.38;8361116;28;20461;-65
2022/03/01 03:52:17;;;;;;;31.80;16.02;;;;;;;2.29;82.96;101814.63;8363046;28;20051;-65
2022/03/01 03:56:18;;;;;;;31.88;15.68;;;;;;;2.40;82.09;101817.75;8362893;28;20041;-65
2022/03/01 04:00:18;;;;;;;31.90;14.32;;;;;;;2.40;81.97;101827.56;8361255;28;20040;-65
2022/03/01 04:04:19;;;;;;;36.10;16.38;;;;;;;2.17;82.94;101819.53;8360146;28;20037;-65
2022/03/01 04:08:19;;;;;;;28.65;14.70;;;;;;;2.20;82.85;101819.44;8362353;28;20071;-65
2022/03/01 04:12:20;;;;;;;30.30;15.13;;;;;;;2.15;83.57;101811.59;8360571;28;20048;-65
2022/03/01 04:16:20;;;;;;;30.50;15.23;;;;;;;2.21;83.55;101815.81;8362812;28;20131;-65
2022/03/01 04:20:22;;;;;;;28.42;14.82;;;;;;;2.27;82.91;101821.81;8361714;28;20037;-65
2022/03/01 04:24:22;;;;;;;31.50;14.93;;;;;;;2.33;82.90;101816.25;8363423;28;20075;-65
2022/03/01 04:28:23;;;;;;;32.85;14.00;;;;;;;2.33;82.56;101818.94;8341822;28;20045;-65
2022/03/01 04:32:24;;;;;;;30.42;14.20;;;;;;;2.29;82.94;101817.31;8329247;28;20053;-65
2022/03/01 04:36:24;;;;;;;29.88;14.80;;;;;;;2.16;83.67;101810.66;8330138;28;20045;-65
2022/03/01 04:40:25;;;;;;;30.60;15.27;;;;;;;2.23;84.01;101814.88;8355443;28;20121;-65
2022/03/01 04:44:25;;;;;;;31.67;15.00;;;;;;;2.24;83.80;101816.59;8362400;28;20033;-65
2022/03/01 04:48:27;;;;;;;29.60;14.30;;;;;;;2.20;84.29;101820.31;8344779;28;20044;-65
2022/03/01 04:52:27;;;;;;;29.77;15.65;;;;;;;2.10;84.82;101824.22;8363454;28;20076;-65
2022/03/01 04:56:27;;;;;;;28.48;14.70;;;;;;;1.89;85.93;101838.31;8361909;28;20502;-65
2022/03/01 05:00:28;;;;;;;30.08;15.00;;;;;;;1.72;86.79;101835.38;8362314;28;20043;-65
2022/03/01 05:04:28;;;;;;;27.50;14.60;;;;;;;1.37;87.82;101841.03;8344605;28;20033;-65
2022/03/01 05:08:33;;;;;;;28.10;15.35;;;;;;;1.23;88.79;101837.94;8356312;28;20041;-64
2022/03/01 05:12:48;;;;;;;31.38;15.18;;;;;;;1.37;89.25;101843.69;8354756;28;20138;-64
2022/03/01 05:16:49;;;;;;;35.00;16.08;;;;;;;1.64;87.59;101840.09;8359676;28;20091;-64
2022/03/01 05:20:49;;;;;;;30.25;14.10;;;;;;;1.74;86.73;101831.72;8360686;28;20048;-64
2022/03/01 05:24:49;;;;;;;28.45;14.23;;;;;;;1.86;85.91;101825.13;8360794;28;20033;-64
2022/03/01 05:28:50;;;;;;;28.58;14.80;;;;;;;2.09;84.22;101814.47;8357715;28;20409;-64
2022/03/01 05:32:51;;;;;;;27.23;14.20;;;;;;;2.35;83.08;101827.72;8359585;28;20049;-64
2022/03/01 05:36:52;;;;;;;31.63;13.75;;;;;;;2.43;82.10;101827.44;8391867;28;20447;-64
2022/03/01 05:40:52;;;;;;;29.73;14.07;;;;;;;2.52;82.11;101819.97;8324705;28;20033;-64
2022/03/01 05:44:53;;;;;;;31.92;14.35;;;;;;;2.74;80.60;101820.88;8358043;28;20116;-64
2022/03/01 05:48:53;;;;;;;28.95;14.10;;;;;;;2.76;80.19;101821.69;8325228;28;20052;-64
2022/03/01 05:52:54;;;;;;;27.15;13.68;;;;;;;2.74;79.95;101828.88;8325792;28;20041;-64
2022/03/01 05:56:55;;;;;;;28.98;13.50;;;;;;;2.62;80.46;101834.69;8334204;28;20029;-65
2022/03/01 06:00:55;;;;;;;28.27;13.32;;;;;;;2.66;80.49;101836.34;8358640;28;20040;-65
2022/03/01 06:04:57;;;;;;;30.33;13.65;;;;;;;2.74;80.23;101828.88;8355498;28;20043;-66
2022/03/01 06:08:57;;;;;;;25.38;13.43;;;;;;;2.84;79.79;101827.59;8358783;28;20037;-66
2022/03/01 06:12:57;;;;;;;26.00;13.52;;;;;;;2.87;79.68;101824.81;8359098;28;20114;-65
2022/03/01 06:16:58;;;;;;;28.42;13.15;;;;;;;2.89;79.91;101822.94;8359006;28;20044;-66
2022/03/01 06:20:59;;;;;;;24.00;13.82;;;;;;;2.86;80.36;101828.41;8357765;28;20080;-66
2022/03/01 06:25:00;;;;;;;28.65;13.48;;;;;;;2.94;79.96;101822.78;8340835;28;20037;-66
2022/03/01 06:29:00;;;;;;;26.83;12.75;;;;;;;3.02;79.61;101829.53;8343922;28;20052;-66
2022/03/01 06:33:01;;;;;;;26.80;12.90;;;;;;;3.09;79.26;101833.72;8354297;28;20045;-66
2022/03/01 06:37:01;;;;;;;25.42;12.73;;;;;;;3.15;78.81;101835.28;8353505;28;20044;-66
2022/03/01 06:41:02;;;;;;;26.83;12.90;;;;;;;3.26;78.30;101833.06;8385636;28;20128;-66
2022/03/01 06:45:04;;;;;;;24.02;12.10;;;;;;;3.38;77.89;101836.06;8384422;28;20441;-65
2022/03/01 06:49:04;;;;;;;26.27;12.70;;;;;;;3.54;77.12;101828.31;8358086;28;20069;-65
2022/03/01 06:53:06;;;;;;;21.55;11.65;;;;;;;3.70;76.30;101829.38;8362500;28;20033;-65
2022/03/01 06:57:06;;;;;;;29.75;13.18;;;;;;;3.78;76.28;101832.59;8360610;28;20067;-65
2022/03/01 07:01:07;;;;;;;31.08;15.63;;;;;;;3.92;75.33;101825.72;8359523;28;20118;-66
2022/03/01 07:05:10;;;;;;;30.05;14.02;;;;;;;3.79;75.55;101821.81;8350247;28;20037;-66
2022/03/01 07:09:10;;;;;;;22.48;12.43;;;;;;;3.74;75.62;101823.84;8331388;28;20053;-66
2022/03/01 07:13:11;;;;;;;27.35;14.55;;;;;;;3.70;75.27;101835.63;8368620;28;20103;-66
2022/03/01 07:17:11;;;;;;;24.48;14.02;;;;;;;3.71;75.48;101853.41;8332709;28;20049;-66
2022/03/01 07:21:11;;;;;;;30.50;15.23;;;;;;;3.70;75.36;101835.63;8336905;28;20076;-65
2022/03/01 07:25:14;;;;;;;29.48;14.02;;;;;;;3.74;75.67;101841.69;8302035;28;20048;-66
2022/03/01 07:29:15;;;;;;;27.95;12.90;;;;;;;3.75;75.90;101836.28;8340431;28;20072;-66
2022/03/01 07:33:15;;;;;;;26.50;13.43;;;;;;;3.77;75.45;101845.09;8327271;28;20049;-66
2022/03/01 07:37:16;;;;;;;27.08;13.38;;;;;;;3.83;75.41;101846.63;8345023;28;20045;-66
2022/03/01 07:41:16;;;;;;;25.60;13.13;;;;;;;3.94;74.96;101845.25;8366893;28;20541;-66
2022/03/01 07:45:18;;;;;;;24.90;13.52;;;;;;;3.94;75.01;101847.91;8322485;28;20072;-66
2022/03/01 07:49:18;;;;;;;28.02;12.98;;;;;;;4.01;74.65;101837.81;8321795;28;20453;-66
2022/03/01 07:53:19;;;;;;;28.40;12.75;;;;;;;4.05;74.94;101847.44;8325007;28;20069;-66
2022/03/01 07:57:20;;;;;;;23.25;12.38;;;;;;;4.12;74.30;101840.03;8343761;28;20049;-66
2022/03/01 08:01:21;;;;;;;26.20;11.75;;;;;;;4.23;74.75;101843.97;8367236;28;20048;-66
2022/03/01 08:05:22;;;;;;;25.08;12.32;;;;;;;4.40;73.19;101852.13;8347950;28;20049;-65
2022/03/01 08:09:23;;;;;;;21.45;12.00;;;;;;;4.75;73.42;101845.13;8322822;28;20037;-63
2022/03/01 08:13:24;;;;;;;23.75;12.00;;;;;;;5.04;73.30;101845.53;8330315;28;20052;-64
2022/03/01 08:17:24;;;;;;;26.42;12.10;;;;;;;5.39;72.00;101849.16;8327673;28;20037;-63
2022/03/01 08:21:24;;;;;;;25.92;12.30;;;;;;;5.56;71.08;101841.16;8330440;28;20041;-64
2022/03/01 08:25:25;;;;;;;25.58;11.75;;;;;;;5.73;70.25;101851.88;8347714;28;20087;-63
2022/03/01 08:29:26;;;;;;;25.38;12.00;;;;;;;5.92;69.25;101847.38;8349021;28;20362;-64
2022/03/01 08:33:27;;;;;;;25.80;11.15;;;;;;;6.21;67.90;101851.22;8336232;28;20048;-64
2022/03/01 08:37:28;;;;;;;25.55;11.75;;;;;;;6.43;66.59;101850.00;8325003;28;20041;-64
2022/03/01 08:41:28;;;;;;;21.80;10.68;;;;;;;6.53;65.26;101853.94;8337796;28;20056;-64
2022/03/01 08:45:29;;;;;;;24.15;11.75;;;;;;;6.82;65.47;101861.28;8327428;28;20057;-63
2022/03/01 08:49:29;;;;;;;23.15;11.23;;;;;;;7.02;65.27;101858.34;8340036;28;20052;-63
2022/03/01 08:53:30;;;;;;;26.77;11.57;;;;;;;7.13;64.66;101852.38;8375549;28;20455;-63
2022/03/01 08:57:30;;;;;;;21.77;11.70;;;;;;;6.98;63.24;101856.78;8354429;28;20041;-64
2022/03/01 09:01:31;;;;;;;21.27;11.05;;;;;;;6.95;63.77;101862.34;8347906;28;20052;-64
2022/03/01 09:05:32;;;;;;;19.85;10.35;;;;;;;6.96;63.67;101861.41;8346973;28;20763;-64
2022/03/01 09:09:32;;;;;;;22.10;11.45;;;;;;;7.06;63.68;101859.94;8343961;28;20045;-64
2022/03/01 09:13:33;;;;;;;22.95;11.25;;;;;;;7.08;63.09;101874.13;8343368;28;20059;-65
2022/03/01 09:17:33;;;;;;;22.52;10.15;;;;;;;7.27;63.16;101895.50;8337610;28;20559;-65
2022/03/01 09:21:34;;;;;;;29.90;10.98;;;;;;;7.20;62.84;101873.47;8330345;28;20148;-65
2022/03/01 09:25:34;;;;;;;26.98;11.98;;;;;;;7.38;62.99;101867.03;8345401;28;20056;-65
2022/03/01 09:29:36;;;;;;;18.83;10.07;;;;;;;7.35;63.60;101861.84;8347581;28;20039;-65
2022/03/01 09:33:42;;;;;;;29.67;10.95;;;;;;;7.16;63.52;101844.13;8346578;28;20045;-65
2022/03/01 09:37:42;;;;;;;30.50;11.77;;;;;;;7.05;64.56;101844.72;8345894;28;20099;-65
2022/03/01 09:41:43;;;;;;;27.13;11.65;;;;;;;7.10;65.38;101848.03;8345267;28;20053;-65
2022/03/01 09:45:43;;;;;;;55.97;15.65;;;;;;;7.20;64.56;101857.31;8340788;28;20072;-65
2022/03/01 09:49:44;;;;;;;25.98;12.27;;;;;;;7.84;64.01;101849.94;8349478;28;20059;-65
2022/03/01 09:53:47;;;;;;;30.45;12.70;;;;;;;9.57;61.04;101847.00;8337937;28;20048;-64
2022/03/01 09:57:47;;;;;;;27.45;11.55;;;;;;;11.06;56.68;101860.84;8346108;28;20041;-64
2022/03/01 10:01:49;;;;;;;21.83;10.63;;;;;;;12.16;53.60;101838.06;8355449;28;20036;-64
2022/03/01 10:05:50;;;;;;;21.95;8.93;;;;;;;11.65;52.42;101838.38;8346700;28;20041;-65
2022/03/01 10:09:51;;;;;;;25.52;10.95;;;;;;;12.66;52.57;101837.72;8355189;28;20094;-65
2022/03/01 10:13:58;;;;;;;19.17;10.13;;;;;;;13.79;50.28;101842.81;8353328;28;20432;-65
2022/03/01 10:18:09;;;;;;;20.55;9.55;;;;;;;13.61;49.10;101838.91;8331499;28;20125;-65
2022/03/01 10:22:11;;;;;;;16.55;8.95;;;;;;;13.41;48.96;101845.09;8334148;28;20070;-65
2022/03/01 10:26:19;;;;;;;17.77;10.32;;;;;;;15.17;46.36;101852.34;8332727;28;20738;-65
2022/03/01 10:30:27;;;;;;;16.27;9.88;;;;;;;13.36;47.54;101855.50;8342138;28;20485;-65
2022/03/01 10:34:27;;;;;;;20.95;10.35;;;;;;;11.68;50.47;101854.41;8355867;28;20127;-65
2022/03/01 10:38:28;;;;;;;17.88;9.48;;;;;;;11.19;51.81;101855.41;8336969;28;20044;-65
2022/03/01 10:42:28;;;;;;;18.02;8.82;;;;;;;10.45;52.96;101858.06;8351009;28;20405;-65
2022/03/01 10:46:31;;;;;;;20.92;9.70;;;;;;;9.88;55.25;101854.78;8339180;28;20342;-64
2022/03/01 10:50:32;;;;;;;20.90;10.57;;;;;;;9.53;55.15;101860.81;8328899;28;20040;-64
2022/03/01 10:54:38;;;;;;;20.60;10.68;;;;;;;9.50;56.42;101845.69;8338078;28;20045;-65
2022/03/01 10:58:41;;;;;;;17.80;9.68;;;;;;;9.71;55.85;101849.66;8334189;28;20044;-64
2022/03/01 11:02:41;;;;;;;18.92;10.40;;;;;;;9.62;55.43;101849.41;8366478;28;20033;-64
2022/03/01 11:06:42;;;;;;;19.43;10.87;;;;;;;9.72;56.59;101845.13;8330394;28;20041;-64
2022/03/01 11:10:43;;;;;;;19.95;9.55;;;;;;;9.92;54.43;101852.75;8327888;28;20303;-64
2022/03/01 11:15:03;;;;;;;15.75;9.50;;;;;;;10.51;54.26;101848.66;8327670;28;20095;-64
2022/03/01 11:19:28;;;;;;;17.42;9.20;;;;;;;10.64;53.35;101838.72;8338720;28;20033;-64
2022/03/01 11:23:29;;;;;;;19.83;9.93;;;;;;;11.07;52.33;101840.91;8339968;28;20506;-64
2022/03/01 11:27:29;;;;;;;18.48;9.25;;;;;;;10.62;53.12;101838.81;8339149;28;20528;-65
2022/03/01 11:31:31;;;;;;;17.20;8.63;;;;;;;10.39;53.66;101835.97;8335936;28;20379;-65
2022/03/01 11:35:36;;;;;;;18.45;9.70;;;;;;;10.45;53.21;101835.56;8330095;28;20366;-64
2022/03/01 11:39:37;;;;;;;17.27;8.63;;;;;;;10.50;53.20;101831.56;8331024;28;20404;-64
2022/03/01 11:43:39;;;;;;;15.07;8.77;;;;;;;10.57;54.01;101827.47;8347782;28;20049;-64
2022/03/01 11:47:39;;;;;;;21.90;9.63;;;;;;;10.74;53.01;101819.00;8332401;28;20401;-67
2022/03/01 11:51:46;;;;;;;21.50;9.80;;;;;;;11.22;52.49;101811.84;8345417;28;20045;-66
2022/03/01 11:55:54;;;;;;;22.63;10.40;;;;;;;11.51;52.51;101803.31;8328718;28;20556;-63
2022/03/01 11:59:57;;;;;;;18.38;10.40;;;;;;;11.20;52.59;101798.44;8332928;28;20146;-63
2022/03/01 12:04:00;;;;;;;25.38;10.02;;;;;;;11.00;53.32;101796.34;8326696;28;20073;-63
2022/03/01 12:08:05;;;;;;;19.20;9.77;;;;;;;10.84;53.49;101801.16;8327615;28;20343;-65
2022/03/01 12:12:07;;;;;;;;;;;;;;;10.86;53.93;101804.59;8332194;28;20102;-65
2022/03/01 12:16:11;;;;;;;22.08;10.93;;;;;;;10.79;53.81;101803.31;8328767;28;19992;-66
2022/03/01 12:20:14;;;;;;;23.83;9.87;;;;;;;11.16;52.85;101794.22;8327232;28;20347;-64
2022/03/01 12:24:14;;;;;;;18.17;9.45;;;;;;;11.67;51.64;101787.66;8333378;28;20048;-64
2022/03/01 12:28:16;;;;;;;17.17;8.80;;;;;;;11.64;50.84;101790.59;8335692;28;20373;-64
2022/03/01 12:32:18;;;;;;;20.10;9.38;;;;;;;11.37;49.96;101787.22;8322108;28;20068;-65
2022/03/01 12:36:40;;;;;;;18.45;8.93;;;;;;;11.15;49.90;101789.81;8328290;28;20059;-65
2022/03/01 12:40:43;;;;;;;19.65;9.68;;;;;;;11.35;50.89;101800.00;8331725;28;20517;-65
2022/03/01 12:44:43;;;;;;;22.73;9.00;;;;;;;11.70;49.35;101787.44;8321808;28;20128;-65
2022/03/01 12:48:44;;;;;;;21.92;9.15;;;;;;;11.56;49.66;101798.41;8326283;28;20056;-64
2022/03/01 12:52:54;;;;;;;15.02;8.57;;;;;;;11.65;49.74;101799.59;8327690;28;20059;-65
2022/03/01 12:56:57;;;;;;;21.13;9.48;;;;;;;11.97;49.44;101775.44;8329452;28;20043;-64
2022/03/01 13:01:07;;;;;;;19.55;9.65;;;;;;;11.98;48.88;101774.47;8342874;28;20036;-64
2022/03/01 13:05:09;;;;;;;18.88;8.68;;;;;;;11.85;48.56;101764.56;8332182;28;20282;-64
2022/03/01 13:09:10;;;;;;;20.52;9.90;;;;;;;11.62;49.08;101749.22;8323379;28;20099;-65
2022/03/01 13:13:13;;;;;;;20.23;9.68;;;;;;;11.48;49.75;101743.09;8313793;28;20044;-64
2022/03/01 13:17:14;;;;;;;17.70;8.88;;;;;;;11.46;49.61;101728.78;8315889;28;20072;-65
2022/03/01 13:21:22;;;;;;;19.30;9.90;;;;;;;11.32;49.99;101719.00;8326759;28;20044;-64
2022/03/01 13:25:23;;;;;;;19.23;8.80;;;;;;;11.35;50.10;101716.06;8344256;28;20710;-64
2022/03/01 13:29:29;;;;;;;17.70;8.55;;;;;;;11.39;49.84;101711.28;8331997;28;20115;-64
2022/03/01 13:33:30;;;;;;;14.98;7.93;;;;;;;11.36;50.41;101711.53;8322645;28;20537;-64
2022/03/01 13:37:31;;;;;;;20.25;8.75;;;;;;;11.29;51.26;101708.41;8352223;28;20095;-64
2022/03/01 13:41:34;;;;;;;15.75;8.93;;;;;;;11.20;49.32;101709.09;8350252;28;20322;-64
2022/03/01 13:45:36;;;;;;;17.88;9.02;;;;;;;11.36;50.20;101712.41;8341419;28;20713;-64
2022/03/01 13:49:42;;;;;;;15.75;8.43;;;;;;;11.10;50.52;101702.66;8316533;28;20555;-64
2022/03/01 13:53:45;;;;;;;16.20;8.57;;;;;;;11.23;49.05;101703.44;8317860;28;20129;-66
2022/03/01 13:57:49;;;;;;;19.92;7.95;;;;;;;11.23;49.86;101698.03;8332709;28;20045;-64
2022/03/01 14:01:50;;;;;;;14.50;8.18;;;;;;;11.06;49.86;101682.22;8330779;28;20064;-64
2022/03/01 14:05:56;;;;;;;18.40;8.80;;;;;;;11.24;48.95;101690.78;8333311;28;20041;-65
2022/03/01 14:09:57;;;;;;;15.45;8.25;;;;;;;11.34;47.71;101703.53;8324894;28;20037;-65
2022/03/01 14:13:57;;;;;;;14.88;7.75;;;;;;;11.57;47.24;101705.34;8321388;28;20049;-65
2022/03/01 14:17:58;;;;;;;17.50;8.43;;;;;;;11.51;48.14;101705.81;8306340;28;20422;-65
2022/03/01 14:21:58;;;;;;;16.45;7.78;;;;;;;11.24;49.10;101697.09;8322274;28;20056;-64
2022/03/01 14:25:59;;;;;;;17.93;8.80;;;;;;;11.20;49.13;101692.84;8332786;28;20060;-64
2022/03/01 14:29:59;;;;;;;15.15;8.55;;;;;;;11.03;49.38;101687.00;8350171;28;20918;-65
2022/03/01 14:34:00;;;;;;;17.83;8.93;;;;;;;10.91;51.58;101683.38;8329032;28;20129;-65
2022/03/01 14:38:01;;;;;;;18.77;9.80;;;;;;;10.84;50.27;101676.69;8338126;28;20148;-65
2022/03/01 14:42:02;;;;;;;17.05;9.23;;;;;;;10.84;50.78;101671.28;8325080;28;20523;-64
2022/03/01 14:46:03;;;;;;;18.92;9.07;;;;;;;10.87;50.65;101675.59;8343984;28;20040;-64
2022/03/01 14:50:05;;;;;;;18.38;10.02;;;;;;;10.92;52.27;101674.25;8349644;28;20033;-64
2022/03/01 14:54:06;;;;;;;16.00;8.68;;;;;;;11.00;51.29;101669.16;8350406;28;20045;-64
2022/03/01 14:58:06;;;;;;;18.83;8.38;;;;;;;10.96;49.94;101655.97;8338921;28;20127;-64
2022/03/01 15:02:08;;;;;;;21.13;9.50;;;;;;;10.85;49.69;101651.34;8332441;28;20576;-65
2022/03/01 15:06:09;;;;;;;20.30;9.10;;;;;;;10.81;51.00;101649.88;8349149;28;20841;-64
2022/03/01 15:10:12;;;;;;;20.58;9.68;;;;;;;10.68;51.45;101643.66;8345862;28;20048;-65
2022/03/01 15:14:12;;;;;;;22.13;9.60;;;;;;;10.51;52.61;101635.03;8349121;28;20140;-65
2022/03/01 15:18:13;;;;;;;22.20;8.90;;;;;;;10.52;51.35;101634.94;8343338;28;20300;-64
2022/03/01 15:22:14;;;;;;;23.50;9.75;;;;;;;10.56;51.77;101628.34;8326622;28;20099;-64
2022/03/01 15:26:14;;;;;;;22.35;10.05;;;;;;;10.57;51.13;101631.88;8334235;28;20036;-65
2022/03/01 15:30:17;;;;;;;18.05;9.55;;;;;;;10.53;50.94;101636.69;8347224;28;20053;-64
2022/03/01 15:34:17;;;;;;;20.30;9.27;;;;;;;10.48;52.02;101630.72;8346905;28;20272;-64
2022/03/01 15:38:18;;;;;;;16.67;9.40;;;;;;;10.48;50.83;101619.91;8336872;28;20428;-64
2022/03/01 15:42:19;;;;;;;19.27;9.30;;;;;;;10.40;51.24;101632.28;8341190;28;20114;-64
2022/03/01 15:46:19;;;;;;;19.13;9.25;;;;;;;10.32;52.57;101624.72;8337940;28;20152;-64
2022/03/01 15:50:20;;;;;;;19.52;9.60;;;;;;;10.27;52.42;101618.78;8338701;28;20037;-64
2022/03/01 15:54:21;;;;;;;17.80;9.13;;;;;;;10.29;52.15;101616.84;8339884;28;20037;-64
2022/03/01 15:58:21;;;;;;;21.13;10.32;;;;;;;10.20;52.08;101617.50;8337296;28;20414;-64
2022/03/01 16:02:24;;;;;;;25.88;10.68;;;;;;;10.20;53.40;101619.34;8336062;28;20167;-64
2022/03/01 16:06:24;;;;;;;18.45;9.80;;;;;;;10.13;53.43;101616.25;8335766;28;20052;-64
2022/03/01 16:10:24;;;;;;;23.75;11.65;;;;;;;10.12;53.65;101622.59;8337741;28;20036;-64
2022/03/01 16:14:25;;;;;;;27.73;14.68;;;;;;;10.02;54.41;101622.38;8330806;28;20282;-64
2022/03/01 16:18:26;;;;;;;30.67;14.05;;;;;;;10.00;53.89;101618.03;8338240;28;20541;-64
2022/03/01 16:22:26;;;;;;;33.30;14.13;;;;;;;9.96;53.12;101619.25;8320837;28;20064;-64
2022/03/01 16:26:28;;;;;;;21.20;9.85;;;;;;;9.96;53.38;101621.94;8336522;28;20569;-64
2022/03/01 16:30:28;;;;;;;27.38;13.13;;;;;;;9.97;53.03;101610.16;8332337;28;20501;-64
2022/03/01 16:34:30;;;;;;;32.88;15.38;;;;;;;9.99;52.95;101616.31;8315123;28;20120;-64
2022/03/01 16:38:30;;;;;;;23.27;12.65;;;;;;;9.93;53.55;101617.63;8314238;28;20049;-64
2022/03/01 16:42:31;;;;;;;25.55;12.18;;;;;;;9.98;52.87;101620.84;8313956;28;20520;-64
2022/03/01 16:46:33;;;;;;;22.17;11.02;;;;;;;9.91;53.18;101610.59;8326507;28;20064;-64
2022/03/01 16:50:34;;;;;;;25.92;13.98;;;;;;;9.88;52.66;101603.59;8339000;28;20413;-64
2022/03/01 16:54:40;;;;;;;29.33;15.10;;;;;;;9.76;54.35;101609.00;8328470;28;20830;-64
2022/03/01 16:58:40;;;;;;;22.35;11.13;;;;;;;9.68;54.55;101611.38;8325668;28;20123;-64
2022/03/01 17:02:41;;;;;;;21.15;11.88;;;;;;;9.58;54.76;101604.91;8311109;28;20049;-64
2022/03/01 17:06:41;;;;;;;21.30;10.75;;;;;;;9.54;55.00;101608.78;8328516;28;20045;-64
2022/03/01 17:10:42;;;;;;;22.02;11.38;;;;;;;9.58;54.71;101615.72;8320969;28;20118;-64
2022/03/01 17:14:42;;;;;;;21.80;11.43;;;;;;;9.52;54.81;101626.94;8318855;28;20156;-64
2022/03/01 17:18:43;;;;;;;21.77;10.98;;;;;;;9.54;54.78;101619.56;8328179;28;20532;-64
2022/03/01 17:22:44;;;;;;;26.63;13.77;;;;;;;9.48;54.80;101620.88;8329069;28;20049;-64
2022/03/01 17:26:44;;;;;;;24.77;11.65;;;;;;;9.40;56.05;101633.19;8334486;28;20569;-64
2022/03/01 17:30:45;;;;;;;20.90;10.73;;;;;;;9.35;55.94;101636.19;8317200;28;20041;-64
2022/03/01 17:34:48;;;;;;;44.28;12.40;;;;;;;9.22;57.18;101634.44;8319769;28;20060;-64
2022/03/01 17:38:49;;;;;;;24.43;12.23;;;;;;;9.16;58.11;101635.72;8332314;28;20045;-64
2022/03/01 17:42:50;;;;;;;22.98;12.45;;;;;;;9.18;57.40;101638.31;8315717;28;20303;-64
2022/03/01 17:46:50;;;;;;;22.17;11.70;;;;;;;9.17;58.01;101641.97;8330198;28;20286;-64
2022/03/01 17:50:51;;;;;;;27.23;12.70;;;;;;;9.14;57.55;101631.38;8335133;28;20040;-65
2022/03/01 17:54:52;;;;;;;21.23;11.30;;;;;;;9.16;57.26;101640.25;8331529;28;20045;-65
2022/03/01 17:58:53;;;;;;;25.42;12.73;;;;;;;9.13;57.23;101635.06;8336143;28;20232;-65
2022/03/01 18:02:53;;;;;;;25.13;11.52;;;;;;;9.05;57.83;101640.09;8327752;28;20324;-65
2022/03/01 18:06:54;;;;;;;26.23;11.60;;;;;;;8.98;57.56;101636.09;8317097;28;20045;-65
2022/03/01 18:10:55;;;;;;;25.25;12.60;;;;;;;8.95;57.78;101642.56;8315231;28;20464;-65
2022/03/01 18:14:56;;;;;;;22.52;11.85;;;;;;;8.90;57.92;101649.22;8324645;28;20045;-64
2022/03/01 18:18:57;;;;;;;26.17;12.07;;;;;;;8.81;57.50;101661.50;8322266;28;20048;-65
2022/03/01 18:22:57;;;;;;;24.63;12.35;;;;;;;8.70;58.30;101669.44;8349685;28;20041;-66
2022/03/01 18:26:57;;;;;;;24.70;11.80;;;;;;;8.55;57.71;101661.47;8329471;28;20077;-65
2022/03/01 18:30:58;;;;;;;30.58;13.38;;;;;;;8.34;58.15;101652.06;8351399;28;20036;-65